Time;durP1;ratioP1;P1;durP2;ratioP2;P2;SDS_P1;SDS_P2;PMS_P1;PMS_P2;Temp;Humidity;BMP_temperature;BMP_pressure;BME280_temperature;BME280_humidity;BME280_pressure;Samples;Min_cycle;Max_cycle;Signal;HPM_P1;HPM_P2
2021/11/05 00:00:41;;;;;;;5.10;4.70;;;;;;;8.38;64.71;96477.50;5045943;28;20422;-68
2021/11/05 00:03:07;;;;;;;4.53;3.97;;;;;;;8.40;65.00;96484.19;5022373;28;20491;-68
2021/11/05 00:05:33;;;;;;;5.33;4.83;;;;;;;8.44;64.52;96484.69;5044099;28;20454;-67
2021/11/05 00:08:02;;;;;;;4.90;4.40;;;;;;;8.48;64.91;96480.00;5050121;28;21169;-67
2021/11/05 00:10:28;;;;;;;5.70;5.10;;;;;;;8.41;65.12;96480.63;5046498;28;20425;-67
2021/11/05 00:12:54;;;;;;;4.90;4.00;;;;;;;8.20;65.65;96493.22;5046473;28;20565;-68
2021/11/05 00:15:19;;;;;;;5.77;5.10;;;;;;;8.14;65.98;96495.47;5046810;28;20716;-67
2021/11/05 00:17:45;;;;;;;5.30;4.60;;;;;;;8.21;65.87;96485.25;5045805;28;20184;-67
2021/11/05 00:20:11;;;;;;;6.43;4.80;;;;;;;8.14;65.81;96498.09;5047488;28;20509;-68
2021/11/05 00:22:37;;;;;;;6.10;5.30;;;;;;;8.33;65.47;96498.03;5050649;28;20464;-69
2021/11/05 00:25:06;;;;;;;6.07;4.90;;;;;;;8.47;65.25;96492.22;5070568;28;20186;-68
2021/11/05 00:27:32;;;;;;;4.70;4.27;;;;;;;8.30;65.47;96501.78;5065350;28;20432;-69
2021/11/05 00:29:57;;;;;;;7.20;5.00;;;;;;;8.05;67.04;96493.81;5071323;28;20421;-67
2021/11/05 00:32:23;;;;;;;4.80;4.40;;;;;;;8.39;66.03;96493.00;5053732;28;20548;-69
2021/11/05 00:34:48;;;;;;;5.27;4.77;;;;;;;8.32;65.66;96497.19;5035188;28;20202;-65
2021/11/05 00:37:14;;;;;;;6.77;4.97;;;;;;;8.44;64.45;96501.16;5052487;28;20202;-66
2021/11/05 00:39:40;;;;;;;6.53;5.60;;;;;;;8.59;64.72;96498.00;5049924;28;20179;-67
2021/11/05 00:42:06;;;;;;;6.80;5.00;;;;;;;8.05;65.81;96501.63;5047189;28;20468;-69
2021/11/05 00:44:31;;;;;;;5.43;4.97;;;;;;;8.20;65.73;96498.44;5049512;28;20191;-69
2021/11/05 00:46:57;;;;;;;5.53;5.00;;;;;;;8.02;66.42;96507.16;5058269;28;20209;-68
2021/11/05 00:49:22;;;;;;;5.80;4.80;;;;;;;8.26;66.11;96508.28;5051612;28;20191;-67
2021/11/05 00:51:48;;;;;;;5.20;4.57;;;;;;;7.86;67.36;96509.63;5034691;28;20187;-66
2021/11/05 00:54:14;;;;;;;5.20;4.70;;;;;;;8.36;65.60;96506.38;5064462;28;20559;-67
2021/11/05 00:56:40;;;;;;;5.00;4.47;;;;;;;8.40;65.83;96512.91;5047946;28;20211;-67
2021/11/05 00:59:05;;;;;;;4.77;4.37;;;;;;;7.92;66.90;96516.88;5050279;28;20721;-67
2021/11/05 01:01:31;;;;;;;5.50;4.93;;;;;;;8.14;66.63;96518.13;5048999;28;20287;-67
2021/11/05 01:03:57;;;;;;;5.33;4.83;;;;;;;7.68;67.35;96516.53;5047039;28;20638;-67
2021/11/05 01:06:23;;;;;;;6.00;5.27;;;;;;;8.10;66.57;96524.66;5049495;28;20259;-67
2021/11/05 01:08:48;;;;;;;5.33;4.83;;;;;;;8.42;65.28;96520.59;5054225;28;20431;-63
2021/11/05 01:11:15;;;;;;;5.27;4.80;;;;;;;8.53;65.01;96524.75;5051292;28;20265;-68
2021/11/05 01:13:40;;;;;;;6.00;4.60;;;;;;;8.45;65.11;96528.13;5045906;28;20182;-67
2021/11/05 01:16:06;;;;;;;5.10;4.63;;;;;;;8.33;65.88;96522.31;5049847;28;20993;-66
2021/11/05 01:18:32;;;;;;;5.00;4.50;;;;;;;7.79;67.71;96528.53;5048741;28;20190;-68
2021/11/05 01:20:57;;;;;;;6.53;4.73;;;;;;;8.07;66.96;96530.97;5047800;28;20218;-67
2021/11/05 01:23:23;;;;;;;7.30;5.80;;;;;;;7.94;67.18;96528.78;5044076;28;20566;-67
2021/11/05 01:25:50;;;;;;;4.67;4.27;;;;;;;8.15;66.46;96528.44;5046912;28;20211;-67
2021/11/05 01:28:15;;;;;;;5.00;4.50;;;;;;;8.00;66.27;96533.38;5050580;28;20416;-69
2021/11/05 01:30:41;;;;;;;6.00;5.00;;;;;;;8.35;65.67;96538.66;5046666;28;20420;-69
2021/11/05 01:33:07;;;;;;;5.27;4.77;;;;;;;8.34;66.02;96541.44;5050563;28;20672;-68
2021/11/05 01:35:37;;;;;;;5.17;4.67;;;;;;;8.60;65.39;96541.44;5056654;28;20583;-68
2021/11/05 01:38:04;;;;;;;5.33;4.83;;;;;;;8.54;65.67;96542.88;5072934;28;20520;-67
2021/11/05 01:40:30;;;;;;;4.60;4.13;;;;;;;8.05;67.17;96538.16;5076087;28;20490;-66
2021/11/05 01:43:00;;;;;;;9.23;4.90;;;;;;;8.04;67.35;96546.97;5075309;28;20452;-66
2021/11/05 01:45:26;;;;;;;5.00;4.60;;;;;;;8.14;67.01;96541.63;5071211;28;20289;-67
2021/11/05 01:47:51;;;;;;;5.20;4.70;;;;;;;7.79;68.53;96541.56;5069366;28;20815;-66
2021/11/05 01:50:17;;;;;;;4.70;4.30;;;;;;;7.93;67.84;96547.22;5069834;28;20193;-67
2021/11/05 01:52:42;;;;;;;4.70;4.30;;;;;;;7.41;69.65;96547.91;5058544;28;20627;-69
2021/11/05 01:55:09;;;;;;;4.93;4.40;;;;;;;7.55;69.52;96550.00;5062242;28;20191;-66
2021/11/05 01:57:35;;;;;;;4.70;4.30;;;;;;;8.26;68.09;96545.63;5069921;28;20895;-68
2021/11/05 02:00:01;;;;;;;6.73;4.57;;;;;;;7.74;69.57;96537.78;5071184;28;20421;-66
2021/11/05 02:02:26;;;;;;;6.03;4.90;;;;;;;7.93;69.30;96549.81;5071506;28;20973;-64
2021/11/05 02:04:52;;;;;;;5.20;4.60;;;;;;;7.72;69.70;96557.97;5060151;28;20708;-66
2021/11/05 02:07:20;;;;;;;4.93;4.27;;;;;;;8.14;69.37;96552.06;5053837;28;20596;-67
2021/11/05 02:09:46;;;;;;;5.30;4.80;;;;;;;7.79;70.14;96548.56;5078711;28;20190;-66
2021/11/05 02:12:12;;;;;;;5.20;4.70;;;;;;;7.91;69.81;96552.56;5080595;28;20427;-67
2021/11/05 02:14:38;;;;;;;5.10;4.70;;;;;;;8.24;69.00;96549.38;5047093;28;20559;-66
2021/11/05 02:17:04;;;;;;;5.27;4.77;;;;;;;8.09;68.62;96555.13;5070618;28;20878;-66
2021/11/05 02:19:32;;;;;;;5.20;4.60;;;;;;;7.93;69.78;96557.66;5073277;28;20455;-68
2021/11/05 02:21:59;;;;;;;4.63;4.23;;;;;;;8.49;68.18;96559.97;5072800;28;20452;-66
2021/11/05 02:24:27;;;;;;;4.77;4.37;;;;;;;8.59;67.94;96556.31;5078400;28;20424;-68
2021/11/05 02:26:54;;;;;;;5.50;5.00;;;;;;;8.58;67.24;96561.66;5083429;28;20447;-67
2021/11/05 02:29:20;;;;;;;5.30;4.90;;;;;;;8.34;68.23;96557.09;5083892;28;20416;-67
2021/11/05 02:31:46;;;;;;;5.50;4.57;;;;;;;8.58;67.70;96565.09;5075278;28;20428;-66
2021/11/05 02:34:12;;;;;;;5.27;4.43;;;;;;;8.63;67.70;96567.25;5054176;28;20428;-68
2021/11/05 02:36:37;;;;;;;5.07;4.63;;;;;;;8.53;67.71;96569.16;5070688;28;20214;-67
2021/11/05 02:39:07;;;;;;;5.10;4.60;;;;;;;8.43;67.64;96567.44;5073541;28;20281;-66
2021/11/05 02:41:37;;;;;;;5.03;4.53;;;;;;;8.57;67.90;96562.63;5075270;28;20285;-68
2021/11/05 02:44:03;;;;;;;4.73;4.13;;;;;;;8.49;67.63;96573.03;5075122;28;20516;-66
2021/11/05 02:46:28;;;;;;;4.97;4.57;;;;;;;8.42;68.10;96581.47;5060798;28;20504;-65
2021/11/05 02:49:16;;;;;;;8.70;4.80;;;;;;;8.42;67.92;96578.88;5071464;28;20190;-66
2021/11/05 02:51:43;;;;;;;4.63;4.23;;;;;;;8.53;68.61;96583.03;5072720;28;20194;-66
2021/11/05 02:54:09;;;;;;;4.67;4.27;;;;;;;8.32;68.65;96579.94;5048991;28;20441;-66
2021/11/05 02:56:35;;;;;;;4.93;4.53;;;;;;;8.61;67.88;96574.41;5056627;28;20538;-66
2021/11/05 02:59:01;;;;;;;9.23;4.70;;;;;;;8.53;67.70;96587.44;5076522;28;20641;-67
2021/11/05 03:01:27;;;;;;;6.20;3.93;;;;;;;8.55;67.89;96582.88;5074463;28;20487;-65
2021/11/05 03:03:59;;;;;;;4.37;4.07;;;;;;;8.58;67.66;96593.00;5069478;28;20250;-66
2021/11/05 03:06:24;;;;;;;4.37;3.97;;;;;;;8.53;67.68;96590.06;5061359;28;20452;-66
2021/11/05 03:08:50;;;;;;;4.30;3.90;;;;;;;8.52;68.13;96593.63;5074342;28;20447;-65
2021/11/05 03:11:15;;;;;;;4.00;3.70;;;;;;;8.22;68.47;96596.53;5060595;28;20553;-66
2021/11/05 03:13:43;;;;;;;4.17;3.77;;;;;;;8.07;68.62;96601.44;5072771;28;20178;-66
2021/11/05 03:16:09;;;;;;;4.80;4.23;;;;;;;7.63;71.31;96599.59;5073936;28;20703;-66
2021/11/05 03:18:39;;;;;;;4.20;3.90;;;;;;;7.86;70.16;96604.41;5060632;28;20475;-67
2021/11/05 03:21:05;;;;;;;5.40;4.17;;;;;;;8.35;69.37;96603.13;5072720;28;20425;-67
2021/11/05 03:23:31;;;;;;;44.13;13.20;;;;;;;8.53;68.66;96614.38;5073678;28;20503;-65
2021/11/05 03:25:56;;;;;;;16.10;5.90;;;;;;;8.38;68.41;96608.84;5090933;28;20445;-65
2021/11/05 03:28:22;;;;;;;4.20;3.67;;;;;;;8.40;68.35;96612.16;5090280;28;20186;-67
2021/11/05 03:30:48;;;;;;;5.47;4.27;;;;;;;8.23;68.95;96623.44;5087369;28;20193;-66
2021/11/05 03:33:13;;;;;;;9.57;5.50;;;;;;;8.49;68.32;96617.44;5056908;28;20174;-66
2021/11/05 03:35:39;;;;;;;9.70;5.70;;;;;;;8.29;68.92;96620.22;5073005;28;20210;-67
2021/11/05 03:38:05;;;;;;;16.03;5.87;;;;;;;8.59;67.90;96628.59;5071993;28;20217;-67
2021/11/05 03:40:32;;;;;;;9.97;5.90;;;;;;;8.59;67.87;96628.59;5072112;28;20190;-67
2021/11/05 03:42:58;;;;;;;4.40;3.90;;;;;;;8.09;68.87;96632.63;5055678;28;20805;-67
2021/11/05 03:45:24;;;;;;;3.50;3.20;;;;;;;8.43;68.53;96630.13;5072879;28;20429;-67
2021/11/05 03:47:49;;;;;;;5.63;3.50;;;;;;;8.25;68.59;96647.59;5064331;28;20232;-67
2021/11/05 03:50:15;;;;;;;4.20;3.80;;;;;;;8.52;68.13;96638.84;5071724;28;20187;-67
2021/11/05 03:52:41;;;;;;;3.53;3.20;;;;;;;8.61;67.81;96644.94;5073277;28;20183;-67
2021/11/05 03:55:07;;;;;;;3.50;3.20;;;;;;;8.75;67.41;96644.38;5072983;28;20519;-66
2021/11/05 03:57:33;;;;;;;3.93;3.63;;;;;;;8.31;68.28;96654.84;5072708;28;20182;-67
2021/11/05 03:59:58;;;;;;;3.47;3.17;;;;;;;8.25;68.98;96645.78;5056637;28;20568;-67
2021/11/05 04:02:24;;;;;;;3.80;3.40;;;;;;;8.03;69.38;96654.94;5058023;28;20558;-66
2021/11/05 04:04:54;;;;;;;4.03;3.73;;;;;;;8.41;68.30;96658.19;5059828;28;20697;-67
2021/11/05 04:07:20;;;;;;;8.90;4.00;;;;;;;8.60;67.97;96661.59;5072706;28;20212;-66
2021/11/05 04:09:45;;;;;;;3.70;3.40;;;;;;;8.54;67.85;96664.81;5042683;28;20532;-68
2021/11/05 04:12:11;;;;;;;4.50;3.90;;;;;;;8.43;67.91;96671.06;5050556;28;20175;-66
2021/11/05 04:14:37;;;;;;;4.57;3.30;;;;;;;8.60;67.10;96674.66;5052345;28;20187;-68
2021/11/05 04:17:03;;;;;;;14.33;6.20;;;;;;;8.50;67.99;96681.75;5054171;28;20206;-67
2021/11/05 04:19:28;;;;;;;13.67;5.20;;;;;;;8.17;69.28;96676.25;5063652;28;20526;-66
2021/11/05 04:21:54;;;;;;;3.70;3.40;;;;;;;7.94;69.70;96692.38;5053898;28;20209;-67
2021/11/05 04:24:19;;;;;;;3.17;2.97;;;;;;;8.39;68.21;96681.00;5052255;28;20187;-67
2021/11/05 04:26:45;;;;;;;4.13;3.73;;;;;;;8.41;68.03;96684.28;5051095;28;20298;-67
2021/11/05 04:29:10;;;;;;;3.30;3.00;;;;;;;8.47;68.15;96690.69;5052148;28;20190;-67
2021/11/05 04:31:36;;;;;;;3.43;3.13;;;;;;;8.48;67.40;96688.91;5052631;28;20601;-67
2021/11/05 04:34:02;;;;;;;8.83;3.60;;;;;;;8.36;67.64;96693.56;5060409;28;20183;-67
2021/11/05 04:36:27;;;;;;;3.37;3.07;;;;;;;8.20;68.47;96697.66;5060671;28;20853;-66
2021/11/05 04:38:53;;;;;;;4.00;3.60;;;;;;;8.22;68.24;96697.50;5050761;28;20182;-67
2021/11/05 04:41:19;;;;;;;4.33;3.73;;;;;;;8.12;69.28;96695.78;5036489;28;20184;-68
2021/11/05 04:43:44;;;;;;;3.53;3.23;;;;;;;7.73;70.07;96701.28;5048139;28;20230;-66
2021/11/05 04:46:10;;;;;;;3.50;3.20;;;;;;;7.86;69.54;96700.09;5058999;28;20209;-66
2021/11/05 04:48:36;;;;;;;3.47;3.10;;;;;;;7.61;70.10;96702.44;5051679;28;20194;-65
2021/11/05 04:51:01;;;;;;;3.30;3.00;;;;;;;7.60;71.00;96706.84;5050538;28;20193;-65
2021/11/05 04:53:27;;;;;;;4.00;3.60;;;;;;;7.35;72.25;96718.75;5050743;28;20221;-65
2021/11/05 04:55:52;;;;;;;4.57;3.30;;;;;;;7.73;71.34;96709.09;5051202;28;20207;-66
2021/11/05 04:58:18;;;;;;;3.30;3.00;;;;;;;7.47;72.04;96712.38;5051400;28;20547;-66
2021/11/05 05:00:44;;;;;;;3.10;2.80;;;;;;;7.36;71.80;96720.41;5049960;28;20597;-67
2021/11/05 05:03:10;;;;;;;3.30;3.00;;;;;;;7.44;72.07;96722.28;5027228;28;20489;-66
2021/11/05 05:05:35;;;;;;;4.10;3.00;;;;;;;7.12;73.01;96720.91;5043964;28;20213;-65
2021/11/05 05:08:02;;;;;;;4.20;3.60;;;;;;;7.83;71.54;96722.91;5049948;28;20217;-67
2021/11/05 05:10:28;;;;;;;3.80;3.50;;;;;;;8.27;69.67;96723.97;5044093;28;20647;-66
2021/11/05 05:12:54;;;;;;;3.93;3.60;;;;;;;8.28;68.99;96725.63;5060436;28;20888;-67
2021/11/05 05:15:20;;;;;;;4.70;3.80;;;;;;;7.64;71.81;96726.44;5031004;28;20440;-66
2021/11/05 05:17:46;;;;;;;5.30;3.30;;;;;;;7.96;70.53;96732.16;5048125;28;20429;-66
2021/11/05 05:20:14;;;;;;;3.47;3.17;;;;;;;8.40;69.41;96729.66;5049729;28;20607;-68
2021/11/05 05:22:40;;;;;;;3.67;3.37;;;;;;;8.34;69.63;96730.25;5057758;28;20541;-68
2021/11/05 05:25:09;;;;;;;3.80;3.50;;;;;;;8.50;69.02;96734.00;5052820;28;20426;-68
2021/11/05 05:27:35;;;;;;;3.30;3.00;;;;;;;8.52;68.02;96734.66;5049505;28;20577;-68
2021/11/05 05:30:01;;;;;;;3.40;3.07;;;;;;;8.12;70.27;96742.78;5051172;28;20544;-68
2021/11/05 05:32:27;;;;;;;3.70;3.40;;;;;;;8.45;68.92;96743.06;5056381;28;20417;-68
2021/11/05 05:34:56;;;;;;;3.97;3.67;;;;;;;8.45;68.76;96735.22;5055046;28;20444;-69
2021/11/05 05:37:22;;;;;;;4.17;3.77;;;;;;;8.55;68.92;96744.81;5050265;28;20481;-68
2021/11/05 05:39:48;;;;;;;4.53;4.13;;;;;;;8.38;69.06;96749.88;5046279;28;20454;-66
2021/11/05 05:42:13;;;;;;;5.90;4.40;;;;;;;8.68;68.12;96750.47;5042711;28;20238;-67
2021/11/05 05:44:39;;;;;;;6.57;4.50;;;;;;;8.53;68.74;96754.59;5051081;28;20265;-68
2021/11/05 05:47:06;;;;;;;4.20;3.80;;;;;;;8.15;69.79;96758.16;5058834;28;20270;-69
2021/11/05 05:49:32;;;;;;;4.50;4.10;;;;;;;8.30;69.51;96755.84;5050820;28;20650;-68
2021/11/05 05:51:57;;;;;;;4.40;4.00;;;;;;;8.52;69.08;96766.00;5050831;28;20464;-67
2021/11/05 05:54:23;;;;;;;4.53;4.07;;;;;;;8.67;68.27;96764.50;5061578;28;20278;-67
2021/11/05 05:56:48;;;;;;;4.90;4.40;;;;;;;8.45;68.60;96768.38;5054413;28;20214;-67
2021/11/05 05:59:14;;;;;;;9.03;3.97;;;;;;;8.28;69.97;96776.03;5054544;28;20187;-67
2021/11/05 06:01:40;;;;;;;4.00;3.40;;;;;;;8.25;70.75;96778.13;5046719;28;20779;-66
2021/11/05 06:04:05;;;;;;;4.80;4.30;;;;;;;8.24;70.32;96785.16;5054746;28;20193;-67
2021/11/05 06:06:31;;;;;;;4.77;4.30;;;;;;;8.13;70.09;96787.94;5055246;28;20694;-68
2021/11/05 06:08:57;;;;;;;4.70;4.30;;;;;;;7.96;71.44;96800.84;5053632;28;20187;-68
2021/11/05 06:11:24;;;;;;;5.40;4.30;;;;;;;8.38;70.02;96799.47;5045998;28;20216;-67
2021/11/05 06:13:50;;;;;;;6.43;4.97;;;;;;;8.56;68.94;96798.72;5053187;28;20526;-68
2021/11/05 06:16:16;;;;;;;5.40;4.90;;;;;;;8.35;70.09;96804.19;5053670;28;20978;-66
2021/11/05 06:18:41;;;;;;;5.60;4.60;;;;;;;8.23;70.13;96796.56;5059917;28;20440;-66
2021/11/05 06:21:07;;;;;;;5.90;5.30;;;;;;;8.60;68.83;96813.09;5063905;28;20186;-68
2021/11/05 06:23:32;;;;;;;5.00;4.60;;;;;;;8.64;68.81;96811.84;5074277;28;20210;-68
2021/11/05 06:25:58;;;;;;;5.50;5.00;;;;;;;8.82;68.52;96813.63;5074178;28;20301;-68
2021/11/05 06:28:25;;;;;;;4.80;4.40;;;;;;;7.99;71.09;96828.44;5072810;28;20190;-69
2021/11/05 06:30:51;;;;;;;4.70;4.30;;;;;;;8.15;70.34;96825.19;5072760;28;20935;-68
2021/11/05 06:33:18;;;;;;;5.37;4.50;;;;;;;8.20;70.21;96827.34;5072988;28;20420;-68
2021/11/05 06:35:45;;;;;;;5.30;4.43;;;;;;;8.39;70.05;96829.84;5061048;28;20904;-68
2021/11/05 06:38:10;;;;;;;5.37;4.87;;;;;;;8.53;69.44;96832.97;5069032;28;20445;-67
2021/11/05 06:40:36;;;;;;;5.50;4.97;;;;;;;8.75;69.17;96836.91;5069457;28;20464;-68
2021/11/05 06:43:02;;;;;;;9.37;5.00;;;;;;;8.66;68.77;96837.78;5074042;28;20220;-67
2021/11/05 06:45:30;;;;;;;5.23;4.73;;;;;;;8.78;68.80;96841.81;5069193;28;20207;-68
2021/11/05 06:47:56;;;;;;;6.43;4.90;;;;;;;8.62;68.97;96859.97;5051593;28;20570;-69
2021/11/05 06:50:22;;;;;;;8.10;4.90;;;;;;;8.69;69.03;96858.41;5068388;28;20433;-67
2021/11/05 06:52:47;;;;;;;5.30;4.80;;;;;;;8.63;68.99;96867.66;5052221;28;20500;-68
2021/11/05 06:55:14;;;;;;;4.87;4.40;;;;;;;8.72;68.93;96877.22;5073216;28;20227;-68
2021/11/05 06:57:40;;;;;;;5.20;4.70;;;;;;;8.76;68.85;96873.34;5074199;28;20247;-67
2021/11/05 07:00:08;;;;;;;5.43;4.93;;;;;;;8.83;68.84;96880.56;5074248;28;20859;-67
2021/11/05 07:02:36;;;;;;;7.13;5.20;;;;;;;8.84;68.58;96890.06;5066995;28;20467;-68
2021/11/05 07:05:02;;;;;;;5.77;4.83;;;;;;;8.73;68.19;96902.38;5069155;28;20427;-67
2021/11/05 07:07:28;;;;;;;4.90;4.40;;;;;;;8.57;68.71;96902.19;5073543;28;20529;-68
2021/11/05 07:09:53;;;;;;;5.97;5.00;;;;;;;8.76;68.54;96902.09;5073930;28;20562;-66
2021/11/05 07:12:19;;;;;;;5.27;4.73;;;;;;;9.09;67.50;96905.97;5073965;28;20186;-68
2021/11/05 07:14:45;;;;;;;6.87;4.90;;;;;;;9.01;67.87;96915.38;5072185;28;20197;-67
2021/11/05 07:17:10;;;;;;;5.90;4.73;;;;;;;8.76;68.60;96924.75;5065036;28;20746;-67
2021/11/05 07:19:36;;;;;;;6.53;4.73;;;;;;;8.71;68.38;96930.44;5048563;28;20194;-67
2021/11/05 07:22:02;;;;;;;5.77;4.37;;;;;;;8.18;71.10;96934.53;5076696;28;20214;-67
2021/11/05 07:24:31;;;;;;;4.20;3.87;;;;;;;8.73;68.90;96945.97;5072685;28;20245;-66
2021/11/05 07:26:56;;;;;;;6.10;4.80;;;;;;;8.75;69.27;96952.69;5071570;28;20449;-67
2021/11/05 07:29:26;;;;;;;4.77;4.37;;;;;;;9.05;67.97;96952.50;5070063;28;20421;-66
2021/11/05 07:31:54;;;;;;;5.17;4.20;;;;;;;9.06;68.05;96952.38;5072457;28;20198;-66
2021/11/05 07:34:20;;;;;;;4.60;3.93;;;;;;;8.83;68.10;96957.19;5079707;28;20436;-68
2021/11/05 07:36:45;;;;;;;4.80;4.03;;;;;;;8.89;67.80;96963.63;5083117;28;20514;-68
2021/11/05 07:39:11;;;;;;;4.33;3.93;;;;;;;9.24;67.44;96967.22;5083248;28;20236;-68
2021/11/05 07:41:37;;;;;;;4.47;4.03;;;;;;;9.27;67.05;96976.56;5081122;28;20206;-67
2021/11/05 07:44:02;;;;;;;5.47;4.03;;;;;;;9.46;66.58;96976.41;5054750;28;20182;-67
2021/11/05 07:46:28;;;;;;;6.70;5.40;;;;;;;8.60;69.44;96988.13;5066466;28;20210;-67
2021/11/05 07:48:54;;;;;;;5.20;4.60;;;;;;;9.20;67.69;96992.84;5052915;28;20209;-67
2021/11/05 07:51:20;;;;;;;5.20;3.87;;;;;;;9.40;66.52;96997.13;5073228;28;20535;-67
2021/11/05 07:53:46;;;;;;;4.60;4.07;;;;;;;9.15;66.88;96997.69;5073504;28;20190;-66
2021/11/05 07:56:11;;;;;;;3.70;3.23;;;;;;;9.10;67.67;97006.94;5072139;28;20205;-68
2021/11/05 07:58:37;;;;;;;3.80;3.50;;;;;;;9.46;66.63;97006.97;5072696;28;20201;-66
2021/11/05 08:01:03;;;;;;;3.97;3.30;;;;;;;9.40;66.01;97004.97;5063337;28;20205;-70
2021/11/05 08:03:29;;;;;;;3.43;3.13;;;;;;;9.14;67.17;97022.19;5071194;28;20218;-67
2021/11/05 08:05:55;;;;;;;3.60;3.30;;;;;;;9.40;66.71;97015.44;5062412;28;20958;-67
2021/11/05 08:08:20;;;;;;;4.07;3.67;;;;;;;9.28;66.79;97020.03;5072372;28;20192;-68
2021/11/05 08:10:46;;;;;;;4.07;3.30;;;;;;;9.28;67.15;97028.72;5064271;28;20784;-68
2021/11/05 08:13:13;;;;;;;3.20;3.00;;;;;;;9.07;68.06;97029.81;5070514;28;20236;-67
2021/11/05 08:15:39;;;;;;;6.43;3.63;;;;;;;9.44;66.59;97035.91;5070629;28;20198;-66
2021/11/05 08:18:04;;;;;;;6.57;3.47;;;;;;;9.13;67.25;97038.88;5059169;28;20522;-67
2021/11/05 08:20:30;;;;;;;6.20;3.13;;;;;;;9.24;66.74;97039.63;5071097;28;20289;-66
2021/11/05 08:22:55;;;;;;;3.60;3.30;;;;;;;9.24;67.46;97048.28;5064546;28;20280;-67
2021/11/05 08:25:21;;;;;;;4.43;3.27;;;;;;;9.08;67.47;97046.31;5066802;28;20602;-67
2021/11/05 08:27:48;;;;;;;4.20;3.27;;;;;;;9.15;67.29;97052.59;5063484;28;20687;-67
2021/11/05 08:30:24;;;;;;;3.47;3.17;;;;;;;9.49;66.79;97057.22;5063918;28;20640;-66
2021/11/05 08:32:51;;;;;;;6.67;3.80;;;;;;;9.31;67.07;97062.44;5072045;28;20806;-69
2021/11/05 08:35:18;;;;;;;3.37;3.07;;;;;;;9.56;66.46;97060.06;5071218;28;20444;-68
2021/11/05 08:37:51;;;;;;;3.60;3.30;;;;;;;9.57;66.45;97066.94;5096707;27;20509;-66
2021/11/05 08:40:17;;;;;;;3.87;2.90;;;;;;;9.28;67.00;97067.94;5101325;28;20429;-67
2021/11/05 08:42:44;;;;;;;4.13;3.20;;;;;;;9.80;66.56;97075.13;5097343;28;20436;-68
2021/11/05 08:45:10;;;;;;;3.07;2.77;;;;;;;10.00;65.41;97072.38;5099633;28;20184;-67
2021/11/05 08:47:36;;;;;;;3.40;3.10;;;;;;;9.52;66.10;97080.44;5092362;28;20420;-68
2021/11/05 08:50:29;;;;;;;2.43;2.13;;;;;;;10.09;65.10;97081.94;5105490;28;20246;-67
2021/11/05 08:52:54;;;;;;;2.70;2.43;;;;;;;10.27;64.46;97088.94;5108179;28;20523;-67
2021/11/05 08:55:20;;;;;;;2.83;2.20;;;;;;;10.22;64.36;97088.56;5096625;28;20518;-68
2021/11/05 08:57:46;;;;;;;2.40;1.60;;;;;;;9.47;65.25;97092.31;5108781;28;20640;-69
2021/11/05 09:00:18;;;;;;;2.30;2.00;;;;;;;9.47;65.92;97097.56;5090504;28;20238;-68
2021/11/05 09:02:44;;;;;;;1.90;1.73;;;;;;;9.64;65.60;97109.03;5110371;28;20193;-69
2021/11/05 09:05:10;;;;;;;1.90;1.70;;;;;;;9.73;65.39;97102.06;5098521;28;20859;-68
2021/11/05 09:07:36;;;;;;;2.20;2.00;;;;;;;9.39;66.95;97100.91;5110608;28;20437;-68
2021/11/05 09:10:03;;;;;;;2.10;1.90;;;;;;;9.53;65.92;97104.81;5094987;28;20189;-68
2021/11/05 09:12:30;;;;;;;8.23;1.97;;;;;;;9.60;66.41;97107.69;5097581;28;20227;-68
2021/11/05 09:14:55;;;;;;;2.80;1.83;;;;;;;9.66;65.77;97117.53;5106445;28;20495;-68
2021/11/05 09:17:21;;;;;;;2.80;2.60;;;;;;;9.74;65.89;97120.25;5103036;28;20220;-68
2021/11/05 09:19:46;;;;;;;1.90;1.80;;;;;;;10.20;64.33;97114.06;5091912;28;20192;-68
2021/11/05 09:22:12;;;;;;;2.40;2.17;;;;;;;10.39;64.75;97120.97;5099484;28;20181;-71
2021/11/05 09:24:41;;;;;;;3.00;2.43;;;;;;;10.16;64.91;97121.41;5111570;27;20206;-70
2021/11/05 09:27:08;;;;;;;5.70;2.67;;;;;;;10.04;64.23;97122.63;5103168;28;20225;-67
2021/11/05 09:29:33;;;;;;;2.20;2.10;;;;;;;10.21;64.56;97116.53;5100671;28;20568;-67
2021/11/05 09:31:59;;;;;;;3.10;2.40;;;;;;;10.13;64.25;97124.34;5108339;28;20423;-67
2021/11/05 09:34:25;;;;;;;2.40;2.20;;;;;;;10.75;63.46;97133.97;5108780;28;20181;-69
2021/11/05 09:36:50;;;;;;;2.90;2.70;;;;;;;11.09;62.24;97135.75;5107660;28;20209;-68
2021/11/05 09:39:16;;;;;;;2.60;2.40;;;;;;;10.86;62.63;97135.50;5105863;28;20294;-68
2021/11/05 09:41:41;;;;;;;3.37;2.80;;;;;;;10.39;63.89;97136.69;5106624;28;20189;-68
2021/11/05 09:44:07;;;;;;;5.47;3.83;;;;;;;10.29;64.40;97149.81;5104668;28;20181;-69
2021/11/05 09:46:33;;;;;;;7.37;4.03;;;;;;;10.40;64.81;97151.44;5106127;28;20196;-69
2021/11/05 09:48:59;;;;;;;2.77;2.50;;;;;;;10.34;64.40;97157.22;5082522;28;20320;-68
2021/11/05 09:51:24;;;;;;;6.77;4.70;;;;;;;10.87;62.34;97164.19;5093116;28;20629;-69
2021/11/05 09:53:51;;;;;;;4.77;4.37;;;;;;;10.45;63.24;97159.66;5092769;28;20177;-68
2021/11/05 09:56:18;;;;;;;2.87;2.67;;;;;;;10.75;62.88;97168.03;5094481;28;20209;-69
2021/11/05 09:58:46;;;;;;;2.50;2.30;;;;;;;10.82;62.49;97163.84;5093830;28;20444;-69
2021/11/05 10:01:12;;;;;;;2.60;2.40;;;;;;;10.54;63.33;97174.47;5085606;28;21103;-68
2021/11/05 10:03:38;;;;;;;2.73;2.53;;;;;;;10.47;63.82;97180.47;5092319;28;20416;-69
2021/11/05 10:06:12;;;;;;;5.10;3.30;;;;;;;10.27;63.50;97189.28;5076814;28;20429;-68
2021/11/05 10:08:38;;;;;;;3.73;2.60;;;;;;;10.65;63.53;97189.09;5082657;28;20178;-69
2021/11/05 10:11:28;;;;;;;2.50;2.30;;;;;;;11.20;61.59;97185.34;5087367;28;20427;-69
2021/11/05 10:13:55;;;;;;;2.67;2.47;;;;;;;11.26;61.14;97183.91;5089148;28;20203;-68
2021/11/05 10:16:24;;;;;;;2.60;2.40;;;;;;;11.34;61.17;97191.00;5093351;28;20476;-69
2021/11/05 10:19:07;;;;;;;4.00;2.47;;;;;;;11.53;60.04;97195.97;5082193;28;20424;-67
2021/11/05 10:21:44;;;;;;;3.33;2.70;;;;;;;11.14;60.41;97198.25;5087569;28;20421;-68
2021/11/05 10:24:17;;;;;;;2.27;2.07;;;;;;;11.11;60.75;97190.69;5093044;28;20416;-69
2021/11/05 10:26:43;;;;;;;3.33;2.33;;;;;;;10.75;62.71;97187.22;5093896;28;20444;-68
2021/11/05 10:29:25;;;;;;;4.57;3.73;;;;;;;10.52;62.49;97196.56;5091555;28;20423;-68
2021/11/05 10:32:03;;;;;;;3.63;3.13;;;;;;;10.87;62.02;97190.41;5084164;28;20432;-70
2021/11/05 10:34:45;;;;;;;3.03;2.53;;;;;;;10.82;61.07;97202.31;5081004;28;20942;-69
2021/11/05 10:37:11;;;;;;;2.50;2.30;;;;;;;10.75;60.95;97196.88;5091608;28;20506;-69
2021/11/05 10:39:36;;;;;;;2.70;2.50;;;;;;;11.14;60.32;97196.44;5085065;28;20518;-69
2021/11/05 10:42:02;;;;;;;3.07;2.47;;;;;;;11.36;59.68;97192.47;5093579;28;20181;-67
2021/11/05 10:44:28;;;;;;;2.40;2.20;;;;;;;11.22;58.68;97200.91;5086421;28;20555;-69
2021/11/05 10:47:06;;;;;;;2.37;2.17;;;;;;;11.73;58.01;97200.13;5090838;28;20440;-68
2021/11/05 10:49:33;;;;;;;1.77;1.60;;;;;;;11.52;57.91;97199.56;5082553;28;20695;-69
2021/11/05 10:52:19;;;;;;;2.07;1.87;;;;;;;11.68;56.19;97198.81;5095392;28;20460;-69
2021/11/05 10:54:56;;;;;;;1.80;1.70;;;;;;;11.59;56.84;97201.56;5093908;28;20918;-69
2021/11/05 10:57:39;;;;;;;2.13;1.93;;;;;;;11.79;57.39;97196.84;5079247;28;21181;-68
2021/11/05 11:00:25;;;;;;;2.20;1.90;;;;;;;12.02;55.83;97201.56;5092265;28;20435;-68
2021/11/05 11:02:50;;;;;;;1.97;1.87;;;;;;;12.24;55.55;97200.09;5062415;28;20423;-69
2021/11/05 11:05:33;;;;;;;2.80;2.60;;;;;;;11.38;57.44;97208.03;5077401;28;20433;-68
2021/11/05 11:07:59;;;;;;;4.00;3.60;;;;;;;11.37;57.35;97212.47;5081442;28;20253;-67
2021/11/05 11:10:34;;;;;;;4.13;3.00;;;;;;;11.87;56.82;97215.28;5087035;28;20421;-69
2021/11/05 11:13:00;;;;;;;4.67;3.60;;;;;;;11.02;59.04;97224.75;5088959;28;20420;-68
2021/11/05 11:15:37;;;;;;;5.60;4.13;;;;;;;11.00;57.97;97223.25;5092894;28;20451;-68
2021/11/05 11:18:04;;;;;;;3.00;2.70;;;;;;;11.13;58.60;97215.78;5082951;28;20425;-69
2021/11/05 11:20:36;;;;;;;12.03;6.40;;;;;;;11.25;58.99;97221.59;5104164;28;20452;-69
2021/11/05 11:23:03;;;;;;;5.00;4.40;;;;;;;11.61;59.32;97220.59;5093860;28;20439;-69
2021/11/05 11:25:29;;;;;;;6.20;4.30;;;;;;;11.77;60.05;97214.59;5100357;28;20416;-70
2021/11/05 11:27:55;;;;;;;4.00;3.60;;;;;;;11.82;59.79;97215.75;5105814;28;20438;-68
2021/11/05 11:30:21;;;;;;;4.73;4.33;;;;;;;10.81;63.64;97232.13;5099128;28;20427;-67
2021/11/05 11:32:49;;;;;;;4.80;4.23;;;;;;;11.07;62.35;97226.91;5093522;28;20178;-67
2021/11/05 11:35:15;;;;;;;5.57;4.70;;;;;;;10.56;64.93;97230.16;5075403;28;20427;-68
2021/11/05 11:37:42;;;;;;;7.50;5.20;;;;;;;10.79;63.32;97228.84;5091011;28;20462;-68